createdAt,value
2022-09-01T00:00:30.735Z,16.30
2022-09-01T00:02:59.039Z,16.30
2022-09-01T00:05:27.149Z,16.20
2022-09-01T00:07:55.245Z,16.30
2022-09-01T00:10:23.459Z,16.20
2022-09-01T00:12:51.561Z,16.20
2022-09-01T00:15:19.705Z,16.20
2022-09-01T00:17:49.384Z,16.20
2022-09-01T00:20:20.554Z,16.20
2022-09-01T00:22:49.445Z,16.20
2022-09-01T00:25:20.082Z,16.10
2022-09-01T00:27:48.441Z,16.10
2022-09-01T00:30:16.840Z,16.10
2022-09-01T00:32:46.824Z,16.10
2022-09-01T00:35:17.261Z,16.10
2022-09-01T00:37:45.852Z,16.10
2022-09-01T00:40:16.529Z,16.10
2022-09-01T00:42:45.230Z,16.10
2022-09-01T00:45:13.926Z,16.10
2022-09-01T00:47:43.318Z,16.00
2022-09-01T00:50:13.840Z,16.00
2022-09-01T00:52:46.896Z,16.00
2022-09-01T00:55:19.854Z,16.00
2022-09-01T00:57:48.603Z,16.00
2022-09-01T01:00:20.485Z,16.00
2022-09-01T01:02:56.183Z,16.00
2022-09-01T01:05:27.855Z,16.00
2022-09-01T01:07:57.520Z,16.00
2022-09-01T01:10:26.500Z,16.00
2022-09-01T01:12:54.604Z,16.00
2022-09-01T01:15:22.690Z,16.00
2022-09-01T01:17:50.759Z,16.00
2022-09-01T01:20:38.517Z,16.00
2022-09-01T01:23:16.412Z,16.00
2022-09-01T01:25:50.352Z,16.00
2022-09-01T01:28:21.125Z,16.00
2022-09-01T01:30:52.413Z,15.90
2022-09-01T01:33:22.555Z,15.90
2022-09-01T01:35:51.770Z,15.90
2022-09-01T01:38:22.878Z,15.90
2022-09-01T01:40:53.858Z,15.90
2022-09-01T01:43:23.110Z,15.90
2022-09-01T01:45:53.897Z,15.90
2022-09-01T01:48:24.604Z,15.90
2022-09-01T01:50:54.749Z,15.90
2022-09-01T01:53:23.510Z,15.90
2022-09-01T01:55:53.121Z,15.90
2022-09-01T01:58:25.647Z,15.90
2022-09-01T02:00:55.292Z,16.00
2022-09-01T02:03:26.816Z,16.00
2022-09-01T02:05:56.096Z,16.00
2022-09-01T02:08:26.169Z,16.00
2022-09-01T02:10:57.842Z,16.00
2022-09-01T02:13:31.226Z,16.00
2022-09-01T02:16:02.807Z,16.00
2022-09-01T02:18:36.000Z,16.00
2022-09-01T02:21:07.080Z,16.10
2022-09-01T02:23:35.659Z,16.10
2022-09-01T02:26:16.218Z,16.10
2022-09-01T02:28:55.180Z,16.10
2022-09-01T02:31:24.741Z,16.10
2022-09-01T02:33:54.500Z,16.20
2022-09-01T02:36:25.202Z,16.10
2022-09-01T02:38:55.196Z,16.10
2022-09-01T02:41:34.598Z,16.10
2022-09-01T02:44:04.020Z,16.10
2022-09-01T02:46:32.111Z,16.00
2022-09-01T02:49:00.685Z,16.00
2022-09-01T02:51:29.088Z,16.00
2022-09-01T02:53:57.923Z,16.10
2022-09-01T02:56:27.990Z,16.10
2022-09-01T02:58:56.294Z,16.10
2022-09-01T03:01:27.360Z,16.10
2022-09-01T03:03:57.203Z,16.10
2022-09-01T03:06:26.644Z,16.10
2022-09-01T03:08:56.681Z,16.10
2022-09-01T03:11:25.316Z,16.10
2022-09-01T03:13:54.881Z,16.10
2022-09-01T03:16:27.345Z,16.10
2022-09-01T03:18:55.677Z,16.10
2022-09-01T03:21:29.593Z,16.10
2022-09-01T03:23:58.291Z,16.00
2022-09-01T03:26:26.947Z,16.00
2022-09-01T03:28:57.017Z,16.10
2022-09-01T03:31:27.575Z,16.10
2022-09-01T03:34:00.701Z,16.00
2022-09-01T03:36:30.132Z,16.00
2022-09-01T03:38:59.926Z,16.00
2022-09-01T03:41:30.334Z,15.90
2022-09-01T03:44:02.318Z,15.90
2022-09-01T03:46:36.406Z,15.90
2022-09-01T03:49:07.401Z,15.90
2022-09-01T03:51:38.045Z,15.90
2022-09-01T03:54:06.929Z,15.90
2022-09-01T03:56:41.100Z,15.90
2022-09-01T03:59:17.066Z,15.90
2022-09-01T04:01:47.607Z,15.90
2022-09-01T04:04:16.620Z,15.90
2022-09-01T04:06:47.203Z,15.90
2022-09-01T04:09:16.239Z,15.90
2022-09-01T04:11:46.395Z,15.90
2022-09-01T04:14:16.318Z,15.90
2022-09-01T04:17:02.880Z,15.90
2022-09-01T04:19:36.557Z,15.80
2022-09-01T04:22:05.570Z,15.90
2022-09-01T04:24:35.158Z,15.90
2022-09-01T04:27:04.669Z,15.90
2022-09-01T04:29:34.250Z,15.80
2022-09-01T04:32:05.627Z,15.90
2022-09-01T04:34:41.698Z,15.80
2022-09-01T04:37:15.010Z,15.80
2022-09-01T04:39:55.721Z,15.80
2022-09-01T04:42:27.316Z,15.80
2022-09-01T04:45:53.147Z,15.80
2022-09-01T04:52:08.343Z,15.80
2022-09-01T04:54:39.051Z,15.80
2022-09-01T04:57:08.137Z,15.80
2022-09-01T04:59:37.442Z,15.80
2022-09-01T05:02:09.617Z,15.80
2022-09-01T05:04:44.951Z,15.80
2022-09-01T05:07:14.237Z,15.70
2022-09-01T05:09:42.336Z,15.80
2022-09-01T05:12:13.269Z,15.80
2022-09-01T05:14:48.960Z,15.80
2022-09-01T05:17:19.007Z,15.80
2022-09-01T05:19:51.155Z,15.80
2022-09-01T05:22:23.089Z,15.80
2022-09-01T05:24:55.045Z,15.70
2022-09-01T05:27:24.194Z,15.70
2022-09-01T05:29:54.159Z,15.70
2022-09-01T05:32:26.032Z,15.70
2022-09-01T05:34:54.382Z,15.70
2022-09-01T05:37:22.990Z,15.70
2022-09-01T05:39:52.493Z,15.70
2022-09-01T05:42:21.825Z,15.60
2022-09-01T05:44:52.517Z,15.60
2022-09-01T05:47:21.902Z,15.60
2022-09-01T05:49:53.585Z,15.70
2022-09-01T05:52:26.241Z,15.70
2022-09-01T05:54:55.566Z,15.70
2022-09-01T05:57:34.439Z,15.70
2022-09-01T06:00:10.966Z,15.70
2022-09-01T06:02:40.167Z,15.80
2022-09-01T06:05:11.081Z,15.90
2022-09-01T06:07:40.871Z,15.90
2022-09-01T06:10:10.241Z,15.90
2022-09-01T06:12:38.538Z,15.90
2022-09-01T06:15:15.887Z,16.00
2022-09-01T06:17:46.048Z,16.00
2022-09-01T06:20:18.279Z,16.10
2022-09-01T06:22:47.718Z,16.10
2022-09-01T06:25:17.400Z,16.20
2022-09-01T06:27:46.104Z,16.30
2022-09-01T06:30:23.896Z,16.40
2022-09-01T06:32:52.640Z,16.40
2022-09-01T06:35:25.223Z,16.50
2022-09-01T06:37:53.484Z,16.60
2022-09-01T06:40:21.882Z,16.60
2022-09-01T06:42:52.425Z,16.70
2022-09-01T06:45:23.983Z,16.70
2022-09-01T06:48:00.243Z,16.80
2022-09-01T06:53:45.458Z,17.00
2022-09-01T06:56:08.206Z,17.10
2022-09-01T06:58:36.943Z,17.30
2022-09-01T07:01:09.042Z,17.40
2022-09-01T07:03:40.073Z,17.50
2022-09-01T07:06:59.276Z,17.50
2022-09-01T07:16:30.156Z,18.00
2022-09-01T07:17:26.594Z,18.10
2022-09-01T07:19:56.001Z,18.20
2022-09-01T07:25:13.774Z,18.40
2022-09-01T07:27:49.017Z,18.50
2022-09-01T07:30:19.032Z,18.60
2022-09-01T07:32:53.035Z,18.70
2022-09-01T07:35:23.815Z,18.80
2022-09-01T07:42:30.322Z,18.30
2022-09-01T07:43:34.117Z,19.00
2022-09-01T07:49:29.196Z,19.20
2022-09-01T07:51:45.579Z,19.30
2022-09-01T07:54:15.134Z,19.50
2022-09-01T07:56:44.498Z,19.60
2022-09-01T07:59:15.603Z,19.60
2022-09-01T08:01:44.327Z,19.60
2022-09-01T08:04:12.843Z,19.60
2022-09-01T08:06:41.647Z,19.70
2022-09-01T08:09:11.883Z,19.80
2022-09-01T08:12:03.134Z,19.90
2022-09-01T08:14:35.122Z,20.00
2022-09-01T08:19:53.515Z,20.10
2022-09-01T08:22:24.309Z,20.20
2022-09-01T08:24:53.306Z,20.30
2022-09-01T08:27:23.273Z,20.40
2022-09-01T08:29:51.397Z,20.60
2022-09-01T08:32:20.562Z,20.60
2022-09-01T08:34:48.694Z,20.70
2022-09-01T08:37:16.769Z,20.70
2022-09-01T08:39:48.478Z,20.70
2022-09-01T08:42:27.038Z,20.80
2022-09-01T08:45:10.204Z,20.80
2022-09-01T08:47:55.910Z,20.90
2022-09-01T08:50:26.796Z,21.00
2022-09-01T08:53:09.470Z,21.10
2022-09-01T08:55:41.840Z,21.10
2022-09-01T08:58:13.474Z,21.20
2022-09-01T09:00:48.278Z,21.20
2022-09-01T09:03:40.589Z,21.30
2022-09-01T09:06:17.910Z,21.50
2022-09-01T09:09:00.937Z,21.50
2022-09-01T09:11:56.841Z,21.60
2022-09-01T09:14:52.370Z,21.70
2022-09-01T09:17:25.337Z,21.70
2022-09-01T09:19:53.514Z,21.80
2022-09-01T09:22:22.127Z,21.80
2022-09-01T09:24:56.367Z,21.90
2022-09-01T09:27:27.738Z,22.00
2022-09-01T09:30:00.102Z,22.10
2022-09-01T09:33:19.979Z,22.10
2022-09-01T09:35:36.442Z,22.20
2022-09-01T09:38:23.950Z,22.30
2022-09-01T09:41:18.738Z,22.30
2022-09-01T09:43:50.676Z,22.40
2022-09-01T09:46:26.533Z,22.40
2022-09-01T09:49:19.381Z,22.40
2022-09-01T09:52:17.214Z,22.40
2022-09-01T09:55:04.586Z,22.50
2022-09-01T09:57:39.529Z,22.40
2022-09-01T10:00:17.531Z,22.20
2022-09-01T10:02:54.274Z,22.00
2022-09-01T10:05:35.985Z,21.80
2022-09-01T10:08:05.465Z,21.60
2022-09-01T10:10:41.539Z,21.40
2022-09-01T10:13:13.889Z,21.30
2022-09-01T10:15:45.402Z,21.20
2022-09-01T10:18:21.840Z,21.10
2022-09-01T10:21:01.688Z,21.40
2022-09-01T10:23:32.626Z,21.70
2022-09-01T10:26:33.347Z,22.10
2022-09-01T10:29:07.525Z,22.40
2022-09-01T10:31:42.082Z,22.60
2022-09-01T10:34:15.276Z,22.70
2022-09-01T10:36:54.983Z,22.90
2022-09-01T10:39:27.654Z,23.10
2022-09-01T10:42:07.446Z,23.20
2022-09-01T10:44:36.390Z,23.40
2022-09-01T10:47:13.617Z,23.50
2022-09-01T10:50:02.325Z,23.60
2022-09-01T10:53:05.315Z,23.70
2022-09-01T10:55:46.509Z,23.70
2022-09-01T11:02:23.099Z,23.80
2022-09-01T11:05:18.674Z,23.90
2022-09-01T11:08:14.642Z,23.90
2022-09-01T11:10:57.377Z,23.70
2022-09-01T11:13:50.174Z,23.50
2022-09-01T11:16:51.644Z,23.20
2022-09-01T11:19:41.166Z,23.20
2022-09-01T11:22:28.668Z,23.40
2022-09-01T11:25:40.388Z,23.50
2022-09-01T11:28:36.831Z,23.40
2022-09-01T11:31:24.476Z,23.10
2022-09-01T11:34:00.768Z,22.80
2022-09-01T11:36:32.255Z,22.70
2022-09-01T11:39:08.624Z,22.60
2022-09-01T11:41:57.400Z,22.50
2022-09-01T11:44:34.559Z,22.50
2022-09-01T11:47:09.491Z,22.70
2022-09-01T12:30:39.572Z,22.40
2022-09-01T12:33:25.982Z,22.30
2022-09-01T12:36:12.464Z,22.30
2022-09-01T12:42:25.258Z,22.30
2022-09-01T12:44:56.112Z,22.40
2022-09-01T12:47:50.882Z,22.40
2022-09-01T12:50:43.790Z,22.50
2022-09-01T12:53:32.484Z,22.50
2022-09-01T12:56:06.617Z,22.50
2022-09-01T12:58:48.818Z,22.40
2022-09-01T13:01:31.563Z,22.40
2022-09-01T13:04:26.541Z,22.40
2022-09-01T13:06:57.739Z,22.60
2022-09-01T13:09:25.960Z,22.80
2022-09-01T13:12:09.457Z,23.10
2022-09-01T13:14:38.875Z,23.30
2022-09-01T13:17:13.867Z,23.50
2022-09-01T13:19:42.867Z,23.70
2022-09-01T13:22:11.114Z,23.80
2022-09-01T13:24:39.681Z,23.90
2022-09-01T13:27:23.964Z,23.90
2022-09-01T13:30:35.961Z,23.80
2022-09-01T13:33:22.738Z,23.80
2022-09-01T13:35:52.573Z,23.80
2022-09-01T13:38:20.811Z,23.90
2022-09-01T13:40:50.996Z,23.80
2022-09-01T13:43:22.292Z,23.80
2022-09-01T13:45:51.633Z,23.80
2022-09-01T13:48:22.068Z,23.80
2022-09-01T13:53:40.742Z,23.70
2022-09-01T13:56:08.775Z,23.70
2022-09-01T13:58:37.070Z,23.60
2022-09-01T14:01:05.427Z,23.60
2022-09-01T14:03:35.000Z,23.60
2022-09-01T14:06:03.115Z,23.40
2022-09-01T14:08:33.233Z,23.20
2022-09-01T14:11:01.745Z,23.10
2022-09-01T14:13:31.252Z,23.00
2022-09-01T14:16:00.093Z,23.10
2022-09-01T14:18:32.947Z,23.20
2022-09-01T14:21:02.528Z,23.20
2022-09-01T14:23:30.894Z,23.20
2022-09-01T14:25:59.449Z,23.20
2022-09-01T14:28:27.743Z,23.10
2022-09-01T14:33:24.424Z,23.10
2022-09-01T14:35:52.575Z,23.10
2022-09-01T14:38:22.223Z,23.10
2022-09-01T14:40:52.525Z,23.10
2022-09-01T14:43:21.050Z,23.00
2022-09-01T14:45:49.747Z,23.00
2022-09-01T14:48:19.497Z,23.00
2022-09-01T14:50:50.902Z,23.00
2022-09-01T14:53:19.418Z,23.00
2022-09-01T14:55:55.102Z,23.00
2022-09-01T14:58:25.242Z,23.00
2022-09-01T15:01:00.347Z,22.90
2022-09-01T15:03:35.684Z,22.90
2022-09-01T15:06:04.189Z,22.90
2022-09-01T15:08:32.432Z,22.90
2022-09-01T15:11:12.512Z,22.90
2022-09-01T15:13:41.781Z,22.90
2022-09-01T15:18:44.448Z,22.90
2022-09-01T15:21:20.713Z,22.90
2022-09-01T15:23:51.643Z,22.80
2022-09-01T15:26:22.469Z,22.80
2022-09-01T15:28:51.871Z,22.80
2022-09-01T15:31:32.425Z,22.80
2022-09-01T15:34:04.404Z,22.70
2022-09-01T15:36:35.749Z,22.70
2022-09-01T15:39:05.800Z,22.60
2022-09-01T15:41:36.945Z,22.60
2022-09-01T15:44:08.292Z,22.60
2022-09-01T15:46:39.237Z,22.60
2022-09-01T15:49:10.755Z,22.50
2022-09-01T15:51:41.276Z,22.40
2022-09-01T15:54:12.895Z,22.40
2022-09-01T15:56:44.193Z,22.40
2022-09-01T15:59:15.058Z,22.30
2022-09-01T16:01:45.857Z,22.30
2022-09-01T16:04:21.768Z,22.30
2022-09-01T16:06:53.315Z,22.20
2022-09-01T16:09:26.273Z,22.10
2022-09-01T16:11:56.825Z,22.00
2022-09-01T16:14:32.135Z,21.90
2022-09-01T16:17:07.277Z,21.80
2022-09-01T16:19:48.227Z,21.70
2022-09-01T16:22:22.275Z,21.60
2022-09-01T16:24:54.187Z,21.50
2022-09-01T16:27:32.114Z,21.40
2022-09-01T16:30:04.981Z,21.30
2022-09-01T16:32:33.758Z,21.20
2022-09-01T16:35:04.082Z,21.20
2022-09-01T16:37:44.856Z,21.20
2022-09-01T16:40:23.196Z,21.20
2022-09-01T16:43:00.509Z,21.10
2022-09-01T16:45:43.020Z,21.10
2022-09-01T16:48:18.636Z,21.10
2022-09-01T16:50:54.655Z,21.10
2022-09-01T16:53:39.634Z,21.00
2022-09-01T16:56:11.196Z,20.90
2022-09-01T16:58:49.283Z,20.80
2022-09-01T17:01:30.207Z,20.80
2022-09-01T17:04:12.045Z,20.80
2022-09-01T17:06:49.207Z,20.70
2022-09-01T17:09:22.401Z,20.60
2022-09-01T17:11:54.722Z,20.60
2022-09-01T17:14:37.140Z,20.60
2022-09-01T17:17:10.337Z,20.50
2022-09-01T17:19:40.896Z,20.50
2022-09-01T17:22:12.394Z,20.40
2022-09-01T17:24:43.542Z,20.40
2022-09-01T17:27:15.683Z,20.20
2022-09-01T17:29:47.268Z,20.20
2022-09-01T17:32:39.471Z,20.10
2022-09-01T17:35:16.063Z,20.00
2022-09-01T17:38:00.539Z,20.00
2022-09-01T17:40:37.447Z,20.00
2022-09-01T17:43:13.229Z,19.90
2022-09-01T17:45:52.767Z,19.90
2022-09-01T17:48:24.708Z,19.90
2022-09-01T17:51:03.688Z,19.80
2022-09-01T17:53:42.486Z,19.80
2022-09-01T17:56:24.893Z,19.80
2022-09-01T17:59:02.091Z,19.80
2022-09-01T18:01:39.851Z,19.70
2022-09-01T18:04:35.842Z,19.70
2022-09-01T18:07:13.033Z,19.60
2022-09-01T18:09:46.387Z,19.50
2022-09-01T18:12:20.148Z,19.40
2022-09-01T18:14:57.932Z,19.30
2022-09-01T18:17:32.581Z,19.20
2022-09-01T18:20:08.159Z,19.10
2022-09-01T18:22:43.175Z,19.00
2022-09-01T18:25:19.494Z,18.90
2022-09-01T18:27:48.284Z,18.90
2022-09-01T18:30:26.235Z,18.80
2022-09-01T18:33:13.878Z,18.70
2022-09-01T18:35:47.785Z,18.60
2022-09-01T18:38:32.278Z,18.60
2022-09-01T18:41:24.981Z,18.50
2022-09-01T18:44:02.299Z,18.50
2022-09-01T18:46:39.640Z,18.40
2022-09-01T18:49:19.398Z,18.40
2022-09-01T18:52:03.887Z,18.40
2022-09-01T18:54:38.297Z,18.30
2022-09-01T18:57:08.008Z,18.20
2022-09-01T18:59:49.736Z,18.20
2022-09-01T19:02:28.318Z,18.10
2022-09-01T19:05:03.239Z,18.10
2022-09-01T19:07:37.346Z,18.00
2022-09-01T19:10:15.632Z,18.00
2022-09-01T19:12:54.138Z,17.90
2022-09-01T19:15:30.088Z,17.90
2022-09-01T19:18:13.786Z,17.90
2022-09-01T19:20:49.991Z,17.80
2022-09-01T19:23:26.612Z,17.80
2022-09-01T19:26:03.201Z,17.80
2022-09-01T19:28:43.113Z,17.70
2022-09-01T19:31:19.029Z,17.70
2022-09-01T19:33:52.108Z,17.70
2022-09-01T19:36:26.683Z,17.70
2022-09-01T19:38:55.079Z,17.60
2022-09-01T19:41:29.944Z,17.60
2022-09-01T19:44:05.450Z,17.50
2022-09-01T19:46:41.537Z,17.50
2022-09-01T19:49:24.893Z,17.50
2022-09-01T19:52:01.923Z,17.40
2022-09-01T19:54:40.912Z,17.40
2022-09-01T19:57:15.352Z,17.40
2022-09-01T19:59:54.567Z,17.30
2022-09-01T20:02:31.905Z,17.30
2022-09-01T20:05:07.095Z,17.20
2022-09-01T20:07:44.086Z,17.20
2022-09-01T20:10:27.521Z,17.20
2022-09-01T20:13:09.482Z,17.20
2022-09-01T20:15:44.981Z,17.20
2022-09-01T20:18:25.608Z,17.10
2022-09-01T20:20:53.825Z,17.10
2022-09-01T20:23:33.763Z,17.10
2022-09-01T20:26:06.115Z,17.10
2022-09-01T20:28:45.577Z,17.10
2022-09-01T20:31:20.682Z,17.00
2022-09-01T20:33:54.184Z,17.00
2022-09-01T20:36:30.446Z,16.90
2022-09-01T20:39:29.139Z,16.90
2022-09-01T20:42:03.064Z,16.90
2022-09-01T20:44:38.410Z,16.90
2022-09-01T20:47:07.882Z,16.80
2022-09-01T20:49:38.392Z,16.80
2022-09-01T20:52:12.882Z,16.80
2022-09-01T20:54:51.532Z,16.70
2022-09-01T20:57:36.249Z,16.70
2022-09-01T21:00:09.538Z,16.70
2022-09-01T21:02:47.192Z,16.60
2022-09-01T21:05:28.291Z,16.60
2022-09-01T21:08:14.215Z,16.60
2022-09-01T21:10:58.369Z,16.60
2022-09-01T21:13:44.678Z,16.50
2022-09-01T21:16:19.638Z,16.50
2022-09-01T21:19:01.388Z,16.50
2022-09-01T21:21:38.163Z,16.50
2022-09-01T21:24:07.539Z,16.50
2022-09-01T21:26:40.347Z,16.50
2022-09-01T21:29:27.968Z,16.50
2022-09-01T21:31:57.025Z,16.50
2022-09-01T21:34:27.274Z,16.40
2022-09-01T21:36:55.622Z,16.40
2022-09-01T21:39:24.361Z,16.40
2022-09-01T21:41:54.376Z,16.40
2022-09-01T21:44:25.639Z,16.30
2022-09-01T21:46:54.046Z,16.30
2022-09-01T21:49:22.168Z,16.30
2022-09-01T21:51:53.401Z,16.20
2022-09-01T21:54:21.857Z,16.20
2022-09-01T21:56:53.342Z,16.10
2022-09-01T21:59:23.102Z,16.10
2022-09-01T22:01:51.708Z,16.10
2022-09-01T22:04:21.184Z,16.20
2022-09-01T22:06:49.229Z,16.20
2022-09-01T22:09:21.267Z,16.10
2022-09-01T22:11:50.565Z,16.10
2022-09-01T22:14:20.531Z,16.10
2022-09-01T22:16:51.182Z,16.00
2022-09-01T22:19:20.165Z,16.00
2022-09-01T22:21:49.079Z,16.00
2022-09-01T22:24:19.464Z,16.00
2022-09-01T22:26:48.978Z,16.00
2022-09-01T22:29:18.444Z,16.00
2022-09-01T22:31:46.581Z,16.00
2022-09-01T22:34:16.064Z,16.00
2022-09-01T22:36:47.361Z,16.00
2022-09-01T22:39:17.418Z,16.00
2022-09-01T22:41:45.565Z,15.90
2022-09-01T22:44:13.684Z,15.90
2022-09-01T22:46:41.926Z,15.90
2022-09-01T22:49:11.143Z,15.80
2022-09-01T22:51:42.437Z,15.80
2022-09-01T22:54:11.917Z,15.70
2022-09-01T22:56:41.748Z,15.70
2022-09-01T22:59:12.028Z,15.70
2022-09-01T23:01:43.542Z,15.70
2022-09-01T23:04:13.799Z,15.70
2022-09-01T23:06:45.899Z,15.70
2022-09-01T23:09:15.169Z,15.60
2022-09-01T23:11:43.590Z,15.60
2022-09-01T23:14:12.028Z,15.50
2022-09-01T23:16:40.271Z,15.50
2022-09-01T23:19:08.594Z,15.40
2022-09-01T23:21:39.572Z,15.40
2022-09-01T23:24:09.748Z,15.40
2022-09-01T23:26:38.048Z,15.30
2022-09-01T23:29:07.053Z,15.40
2022-09-01T23:31:37.322Z,15.40
2022-09-01T23:34:06.992Z,15.30
2022-09-01T23:36:35.518Z,15.30
2022-09-01T23:39:04.202Z,15.30
2022-09-01T23:41:35.442Z,15.30
2022-09-01T23:44:06.033Z,15.20
2022-09-01T23:46:36.952Z,15.20
2022-09-01T23:49:06.104Z,15.20
2022-09-01T23:51:34.709Z,15.20
2022-09-01T23:54:02.824Z,15.20
2022-09-01T23:56:31.495Z,15.20
2022-09-01T23:59:01.463Z,15.20
